TimeEST,TemperatureF,Dew PointF,Humidity,Sea Level PressureIn,VisibilityMPH,Wind Direction,Wind SpeedMPH,Gust SpeedMPH,PrecipitationIn,Events,Conditions,WindDirDegrees,DateUTC
12:15 AM,20.1,15.1,81,29.25,4.0,NW,17.3,24.2,N/A,Snow,Light Snow,320,2013-01-31 05:15:00
12:35 AM,19.0,12.7,76,29.27,5.0,NNW,16.1,25.3,N/A,,Haze,330,2013-01-31 05:35:00
12:55 AM,19.0,14.2,81,29.28,2.5,NW,17.3,21.9,N/A,Snow,Light Snow,320,2013-01-31 05:55:00
1:15 AM,18.5,13.6,81,29.29,3.0,NNW,13.8,23.0,N/A,Snow,Light Snow,330,2013-01-31 06:15:00
1:35 AM,18.3,13.1,80,29.30,3.0,NW,18.4,23.0,N/A,Snow,Light Snow,320,2013-01-31 06:35:00
1:55 AM,17.6,12.4,80,29.31,2.5,NNW,17.3,25.3,N/A,Snow,Light Snow,330,2013-01-31 06:55:00
2:15 AM,17.6,12.9,82,29.32,1.8,NW,16.1,24.2,N/A,Snow,Light Snow,320,2013-01-31 07:15:00
2:35 AM,17.2,11.7,79,29.33,2.5,NNW,15.0,25.3,N/A,Snow,Light Snow,330,2013-01-31 07:35:00
2:55 AM,17.2,12.2,81,29.34,2.0,NNW,15.0,24.2,N/A,Snow,Light Snow,330,2013-01-31 07:55:00
3:15 AM,16.7,12.0,82,29.35,2.5,NW,18.4,24.2,N/A,Snow,Light Snow,320,2013-01-31 08:15:00
3:35 AM,17.1,12.4,82,29.36,2.5,NNW,13.8,21.9,N/A,Snow,Light Snow,330,2013-01-31 08:35:00
3:55 AM,17.2,13.1,84,29.36,2.5,NNW,10.4,-,N/A,Snow,Light Snow,330,2013-01-31 08:55:00
4:15 AM,17.2,10.4,75,29.37,2.5,NW,18.4,26.5,N/A,Snow,Light Snow,310,2013-01-31 09:15:00
4:35 AM,17.4,12.0,79,29.38,2.0,NW,18.4,25.3,N/A,Snow,Light Snow,310,2013-01-31 09:35:00
4:55 AM,17.2,11.8,79,29.39,1.5,NW,19.6,27.6,N/A,Snow,Light Snow,320,2013-01-31 09:55:00
5:15 AM,17.4,11.5,78,29.40,2.0,NW,16.1,24.2,N/A,Snow,Light Snow,310,2013-01-31 10:15:00
5:35 AM,17.4,11.1,76,29.41,2.5,NW,19.6,28.8,N/A,Snow,Light Snow,320,2013-01-31 10:35:00
5:55 AM,17.1,9.9,73,29.41,3.0,NW,20.7,27.6,N/A,Snow,Light Snow,310,2013-01-31 10:55:00
6:15 AM,17.1,9.9,73,29.42,4.0,NW,16.1,25.3,N/A,,Haze,320,2013-01-31 11:15:00
6:34 AM,17.1,10.2,75,29.43,5.0,NW,17.3,28.8,N/A,,Haze,320,2013-01-31 11:34:00
6:55 AM,16.7,10.0,75,29.44,4.0,NNW,19.6,28.8,N/A,Snow,Light Snow,330,2013-01-31 11:55:00
7:14 AM,16.7,10.6,77,29.45,4.0,NNW,17.3,27.6,N/A,Snow,Light Snow,330,2013-01-31 12:14:00
7:34 AM,16.7,10.4,76,29.47,4.0,NNW,19.6,27.6,N/A,Snow,Light Snow,330,2013-01-31 12:34:00
7:54 AM,16.7,11.3,79,29.48,2.5,NW,18.4,25.3,N/A,Snow,Light Snow,320,2013-01-31 12:54:00
8:15 AM,16.5,10.2,76,29.49,2.5,NNW,16.1,27.6,N/A,,Haze,330,2013-01-31 13:15:00
8:34 AM,16.7,10.9,78,29.51,4.0,NW,18.4,24.2,N/A,Snow,Light Snow,320,2013-01-31 13:34:00
8:55 AM,16.3,10.2,77,29.51,4.0,NNW,20.7,26.5,N/A,Snow,Light Snow,330,2013-01-31 13:55:00
9:15 AM,16.3,9.3,74,29.52,5.0,NW,20.7,26.5,N/A,,Haze,320,2013-01-31 14:15:00
9:34 AM,16.2,9.0,73,29.53,5.0,NW,17.3,24.2,N/A,,Haze,320,2013-01-31 14:34:00
9:55 AM,16.5,8.6,71,29.54,10.0,NNW,17.3,25.3,N/A,,Overcast,330,2013-01-31 14:55:00
10:35 AM,16.7,9.0,72,29.56,7.0,NNW,16.1,24.2,N/A,,Overcast,330,2013-01-31 15:35:00
10:55 AM,17.2,9.1,71,29.58,10.0,NNW,16.1,25.3,N/A,,Overcast,330,2013-01-31 15:55:00
11:15 AM,17.2,9.5,72,29.59,4.0,NNW,17.3,25.3,N/A,,Haze,330,2013-01-31 16:15:00
11:35 AM,17.4,10.2,73,29.60,2.0,NNW,15.0,23.0,N/A,Snow,Light Snow,330,2013-01-31 16:35:00
11:59 AM,17.4,12.0,79,29.61,1.0,NNW,13.8,17.3,N/A,Snow,Light Snow,330,2013-01-31 16:59:00
12:15 PM,17.6,13.1,83,29.61,0.8,NW,15.0,19.6,N/A,Snow,Light Snow,320,2013-01-31 17:15:00
12:35 PM,17.4,13.1,83,29.61,0.5,NW,12.7,21.9,N/A,Snow,Snow,320,2013-01-31 17:35:00
12:54 PM,17.6,14.2,86,29.61,0.5,WNW,15.0,19.6,N/A,Snow,Light Snow,300,2013-01-31 17:54:00
1:15 PM,18.5,13.6,81,29.62,1.5,WNW,13.8,20.7,N/A,Snow,Light Snow,290,2013-01-31 18:15:00
1:35 PM,17.6,14.0,86,29.62,0.2,NW,15.0,-,N/A,Snow,Snow,320,2013-01-31 18:35:00
1:54 PM,17.4,14.5,88,29.63,0.2,NNW,11.5,19.6,N/A,Snow,Snow,330,2013-01-31 18:54:00
2:15 PM,17.6,14.9,89,29.63,0.2,NW,13.8,18.4,N/A,Snow,Snow,320,2013-01-31 19:15:00
2:35 PM,17.6,14.0,86,29.64,0.5,NW,13.8,19.6,N/A,Snow,Snow,320,2013-01-31 19:35:00
2:55 PM,17.4,14.7,89,29.65,0.2,NW,13.8,19.6,N/A,Snow,Heavy Snow,310,2013-01-31 19:55:00
3:15 PM,17.2,14.9,91,29.66,0.2,NNW,11.5,17.3,N/A,Snow,Heavy Snow,330,2013-01-31 20:15:00
3:34 PM,18.1,15.4,89,29.66,0.2,NW,16.1,23.0,N/A,Snow,Snow,310,2013-01-31 20:34:00
3:55 PM,18.0,14.5,86,29.67,0.8,WNW,19.6,24.2,N/A,Snow,Light Snow,300,2013-01-31 20:55:00
4:15 PM,18.7,14.5,84,29.68,1.0,WNW,17.3,26.5,N/A,Snow,Light Snow,300,2013-01-31 21:15:00
4:35 PM,18.7,12.7,78,29.69,1.5,WNW,19.6,-,N/A,Snow,Light Snow,300,2013-01-31 21:35:00
4:55 PM,18.5,12.7,78,29.70,10.0,NNW,12.7,18.4,N/A,,Overcast,330,2013-01-31 21:55:00
5:15 PM,18.7,10.9,72,29.71,3.0,NW,17.3,23.0,N/A,Snow,Light Snow,310,2013-01-31 22:15:00
5:35 PM,18.3,13.5,81,29.72,1.5,WNW,13.8,21.9,N/A,Snow,Light Snow,300,2013-01-31 22:35:00
5:55 PM,18.7,12.4,76,29.73,2.0,NW,19.6,26.5,N/A,Snow,Light Snow,320,2013-01-31 22:55:00
6:15 PM,18.5,10.9,72,29.74,5.0,NNW,13.8,23.0,N/A,Snow,Light Snow,330,2013-01-31 23:15:00
6:35 PM,18.5,10.8,72,29.74,7.0,NNW,13.8,23.0,N/A,,Overcast,330,2013-01-31 23:35:00
6:55 PM,18.3,11.7,75,29.75,4.0,NNW,15.0,24.2,N/A,Snow,Light Snow,330,2013-01-31 23:55:00
7:15 PM,18.1,12.0,77,29.76,5.0,NNW,18.4,23.0,N/A,Snow,Light Snow,330,2013-02-01 00:15:00
7:35 PM,18.3,11.7,75,29.77,7.0,NW,16.1,21.9,N/A,,Overcast,320,2013-02-01 00:35:00
7:55 PM,17.2,13.6,86,29.78,0.8,NW,17.3,26.5,N/A,Snow,Snow,310,2013-02-01 00:55:00
8:15 PM,17.6,13.1,83,29.78,0.8,NW,24.2,35.7,N/A,Snow,Snow,310,2013-02-01 01:15:00
8:35 PM,17.4,11.8,79,29.79,1.2,NW,21.9,31.1,N/A,Snow,Light Snow,310,2013-02-01 01:35:00
8:55 PM,17.6,11.5,77,29.80,1.5,NW,25.3,31.1,N/A,Snow,Light Snow,310,2013-02-01 01:55:00
9:15 PM,17.4,12.9,83,29.80,1.2,WNW,20.7,29.9,N/A,Snow,Light Snow,300,2013-02-01 02:15:00
9:35 PM,17.2,13.8,86,29.81,0.8,NW,21.9,29.9,N/A,Snow,Snow,310,2013-02-01 02:35:00
10:15 PM,17.6,12.7,81,29.82,1.5,WNW,15.0,27.6,N/A,Snow,Light Snow,300,2013-02-01 03:15:00
10:35 PM,17.6,13.1,83,29.82,1.8,NW,20.7,26.5,N/A,Snow,Light Snow,310,2013-02-01 03:35:00
11:15 PM,17.6,11.8,78,29.84,2.0,NW,17.3,27.6,N/A,Snow,Light Snow,310,2013-02-01 04:15:00
11:35 PM,17.6,11.8,78,29.84,1.5,NW,20.7,28.8,N/A,Snow,Light Snow,320,2013-02-01 04:35:00
11:54 PM,17.4,11.3,77,29.84,2.5,NW,17.3,25.3,N/A,Snow,Light Snow,320,2013-02-01 04:54:00